createdAt,value
2019-01-05T00:00:30.485Z,9.20
2019-01-05T00:01:30.469Z,11.00
2019-01-05T00:02:30.462Z,8.50
2019-01-05T00:03:30.453Z,11.50
2019-01-05T00:04:30.462Z,10.70
2019-01-05T00:05:30.427Z,10.10
2019-01-05T00:06:30.420Z,10.70
2019-01-05T00:07:30.404Z,10.60
2019-01-05T00:08:30.398Z,9.70
2019-01-05T00:09:30.404Z,8.90
2019-01-05T00:10:30.374Z,9.90
2019-01-05T00:11:30.361Z,10.00
2019-01-05T00:12:30.346Z,9.40
2019-01-05T00:13:30.336Z,9.20
2019-01-05T00:14:30.346Z,11.90
2019-01-05T00:15:30.348Z,7.60
2019-01-05T00:16:30.304Z,8.90
2019-01-05T00:17:30.295Z,9.50
2019-01-05T00:18:30.280Z,8.90
2019-01-05T00:19:30.294Z,8.20
2019-01-05T00:20:30.261Z,9.20
2019-01-05T00:21:30.250Z,8.80
2019-01-05T00:22:30.243Z,8.90
2019-01-05T00:23:30.227Z,8.80
2019-01-05T00:24:30.257Z,10.00
2019-01-05T00:25:30.210Z,7.70
2019-01-05T00:26:30.192Z,11.00
2019-01-05T00:27:30.186Z,9.50
2019-01-05T00:28:30.176Z,9.20
2019-01-05T00:29:30.159Z,9.60
2019-01-05T00:30:30.163Z,11.30
2019-01-05T00:31:30.136Z,9.80
2019-01-05T00:32:30.126Z,9.10
2019-01-05T00:33:30.113Z,9.00
2019-01-05T00:34:30.103Z,8.60
2019-01-05T00:35:30.108Z,10.30
2019-01-05T00:36:30.081Z,9.20
2019-01-05T00:37:30.068Z,8.60
2019-01-05T00:38:30.053Z,8.80
2019-01-05T00:39:30.050Z,8.20
2019-01-05T00:40:30.064Z,7.20
2019-01-05T00:41:30.028Z,7.80
2019-01-05T00:42:30.016Z,7.50
2019-01-05T00:43:30.009Z,8.90
2019-01-05T00:44:29.994Z,8.20
2019-01-05T00:45:29.995Z,7.80
2019-01-05T00:46:29.972Z,7.80
2019-01-05T00:47:29.958Z,9.70
2019-01-05T00:48:29.946Z,7.30
2019-01-05T00:49:29.936Z,11.80
2019-01-05T00:50:29.948Z,11.70
2019-01-05T00:51:29.912Z,9.70
2019-01-05T00:52:29.902Z,11.40
2019-01-05T00:53:29.888Z,9.40
2019-01-05T00:54:29.883Z,7.30
2019-01-05T00:55:29.891Z,8.80
2019-01-05T00:56:29.853Z,7.20
2019-01-05T00:57:29.862Z,7.70
2019-01-05T00:58:29.833Z,7.40
2019-01-05T00:59:29.823Z,10.30
2019-01-05T01:00:29.839Z,9.80
2019-01-05T01:01:29.795Z,7.20
2019-01-05T01:02:29.791Z,9.60
2019-01-05T01:03:29.780Z,11.00
2019-01-05T01:04:29.764Z,10.60
2019-01-05T01:05:29.760Z,9.20
2019-01-05T01:06:29.757Z,8.80
2019-01-05T01:07:29.738Z,8.70
2019-01-05T01:08:29.738Z,7.90
2019-01-05T01:09:29.711Z,8.30
2019-01-05T01:10:29.698Z,7.90
2019-01-05T01:11:29.710Z,8.50
2019-01-05T01:12:29.678Z,8.80
2019-01-05T01:13:29.664Z,7.10
2019-01-05T01:14:29.653Z,9.30
2019-01-05T01:15:29.653Z,10.70
2019-01-05T01:16:29.654Z,9.00
2019-01-05T01:17:29.622Z,11.40
2019-01-05T01:18:29.611Z,8.60
2019-01-05T01:19:29.602Z,8.60
2019-01-05T01:20:29.589Z,8.20
2019-01-05T01:21:29.594Z,7.20
2019-01-05T01:22:29.574Z,6.80
2019-01-05T01:23:29.548Z,7.10
2019-01-05T01:24:29.543Z,7.10
2019-01-05T01:25:29.546Z,6.30
2019-01-05T01:26:29.546Z,9.30
2019-01-05T01:27:29.508Z,9.40
2019-01-05T01:28:29.501Z,6.20
2019-01-05T01:29:29.482Z,6.60
2019-01-05T01:30:29.482Z,7.60
2019-01-05T01:31:29.482Z,6.60
2019-01-05T01:32:29.456Z,6.60
2019-01-05T01:33:29.441Z,6.50
2019-01-05T01:34:29.431Z,7.90
2019-01-05T01:35:29.427Z,9.60
2019-01-05T01:36:29.438Z,8.10
2019-01-05T01:37:29.397Z,6.70
2019-01-05T01:38:29.387Z,8.20
2019-01-05T01:39:29.382Z,6.30
2019-01-05T01:40:29.370Z,6.50
2019-01-05T01:41:29.464Z,6.40
2019-01-05T01:42:29.345Z,8.10
2019-01-05T01:43:29.330Z,6.20
2019-01-05T01:44:29.328Z,8.70
2019-01-05T01:45:29.308Z,6.30
2019-01-05T01:46:29.310Z,8.60
2019-01-05T01:47:29.290Z,8.20
2019-01-05T01:48:29.283Z,6.60
2019-01-05T01:49:29.268Z,7.80
2019-01-05T01:50:29.252Z,6.70
2019-01-05T01:51:29.251Z,9.50
2019-01-05T01:52:29.228Z,7.20
2019-01-05T01:53:29.233Z,6.40
2019-01-05T01:54:29.211Z,6.50
2019-01-05T01:55:29.196Z,6.90
2019-01-05T01:56:29.202Z,6.70
2019-01-05T01:57:29.187Z,6.50
2019-01-05T01:58:29.159Z,7.80
2019-01-05T01:59:29.150Z,6.00
2019-01-05T02:00:29.129Z,7.00
2019-01-05T02:01:29.155Z,8.10
2019-01-05T02:02:29.119Z,5.60
2019-01-05T02:03:29.118Z,6.40
2019-01-05T02:04:29.097Z,7.00
2019-01-05T02:05:29.088Z,6.30
2019-01-05T02:06:29.070Z,6.70
2019-01-05T02:07:29.084Z,7.00
2019-01-05T02:08:29.048Z,6.20
2019-01-05T02:09:29.038Z,7.50
2019-01-05T02:10:29.031Z,6.10
2019-01-05T02:11:29.033Z,6.70
2019-01-05T02:12:29.036Z,7.30
2019-01-05T02:13:28.990Z,6.60
2019-01-05T02:14:28.986Z,5.60
2019-01-05T02:15:28.977Z,9.40
2019-01-05T02:16:28.962Z,6.50
2019-01-05T02:17:28.978Z,6.10
2019-01-05T02:18:28.935Z,7.30
2019-01-05T02:19:28.927Z,7.40
2019-01-05T02:20:28.930Z,6.60
2019-01-05T02:21:28.901Z,6.90
2019-01-05T02:22:28.918Z,7.00
2019-01-05T02:23:28.880Z,6.80
2019-01-05T02:24:28.869Z,6.20
2019-01-05T02:25:28.857Z,5.40
2019-01-05T02:26:28.852Z,4.90
2019-01-05T02:27:28.853Z,6.50
2019-01-05T02:28:28.824Z,5.40
2019-01-05T02:29:28.812Z,4.80
2019-01-05T02:30:28.804Z,5.00
2019-01-05T02:31:28.799Z,5.60
2019-01-05T02:32:28.802Z,4.80
2019-01-05T02:33:28.773Z,6.30
2019-01-05T02:34:28.754Z,5.30
2019-01-05T02:35:28.752Z,6.30
2019-01-05T02:36:28.741Z,6.50
2019-01-05T02:37:28.738Z,6.30
2019-01-05T02:38:28.713Z,5.10
2019-01-05T02:39:28.708Z,4.60
2019-01-05T02:40:28.691Z,5.70
2019-01-05T02:41:28.683Z,4.50
2019-01-05T02:42:28.773Z,4.90
2019-01-05T02:43:28.663Z,5.00
2019-01-05T02:44:28.659Z,5.40
2019-01-05T02:45:28.631Z,4.80
2019-01-05T02:46:28.654Z,4.60
2019-01-05T02:47:28.611Z,5.50
2019-01-05T02:48:28.678Z,4.30
2019-01-05T02:49:28.590Z,4.90
2019-01-05T02:50:28.585Z,5.70
2019-01-05T02:51:28.571Z,5.50
2019-01-05T02:52:28.553Z,4.30
2019-01-05T02:53:28.563Z,4.20
2019-01-05T02:54:28.539Z,4.60
2019-01-05T02:55:28.522Z,5.20
2019-01-05T02:56:28.522Z,4.90
2019-01-05T02:57:28.523Z,5.10
2019-01-05T02:58:28.508Z,4.10
2019-01-05T02:59:28.477Z,4.60
2019-01-05T03:00:28.468Z,4.70
2019-01-05T03:01:28.462Z,4.90
2019-01-05T03:02:28.456Z,4.60
2019-01-05T03:03:28.455Z,4.30
2019-01-05T03:04:28.420Z,4.10
2019-01-05T03:05:28.412Z,4.60
2019-01-05T03:06:28.399Z,4.50
2019-01-05T03:07:28.397Z,4.30
2019-01-05T03:08:28.404Z,4.30
2019-01-05T03:09:28.365Z,4.10
2019-01-05T03:10:28.354Z,3.80
2019-01-05T03:11:28.346Z,4.50
2019-01-05T03:12:28.330Z,3.90
2019-01-05T03:13:28.348Z,4.60
2019-01-05T03:14:28.315Z,4.30
2019-01-05T03:15:28.298Z,4.10
2019-01-05T03:16:28.285Z,3.80
2019-01-05T03:17:28.276Z,3.90
2019-01-05T03:18:28.280Z,4.60
2019-01-05T03:19:28.261Z,4.00
2019-01-05T03:20:28.244Z,3.40
2019-01-05T03:21:28.226Z,4.10
2019-01-05T03:22:28.217Z,4.70
2019-01-05T03:23:28.226Z,4.40
2019-01-05T03:24:28.205Z,5.00
2019-01-05T03:25:28.196Z,4.90
2019-01-05T03:26:28.169Z,5.00
2019-01-05T03:27:28.165Z,5.60
2019-01-05T03:28:28.180Z,5.50
2019-01-05T03:29:28.137Z,5.80
2019-01-05T03:30:28.139Z,7.10
2019-01-05T03:31:28.120Z,7.50
2019-01-05T03:32:28.104Z,7.10
2019-01-05T03:33:28.141Z,9.50
2019-01-05T03:34:28.103Z,9.80
2019-01-05T03:35:28.072Z,8.70
2019-01-05T03:36:28.070Z,11.90
2019-01-05T03:37:28.051Z,11.90
2019-01-05T03:38:28.036Z,11.30
2019-01-05T03:39:28.057Z,12.40
2019-01-05T03:40:28.020Z,11.40
2019-01-05T03:41:28.006Z,11.20
2019-01-05T03:42:27.996Z,10.20
2019-01-05T03:43:27.983Z,11.30
2019-01-05T03:44:27.993Z,10.30
2019-01-05T03:45:27.971Z,10.70
2019-01-05T03:46:27.947Z,10.70
2019-01-05T03:47:27.945Z,9.20
2019-01-05T03:48:27.927Z,9.50
2019-01-05T03:49:27.965Z,9.20
2019-01-05T03:50:27.903Z,8.40
2019-01-05T03:51:27.893Z,5.90
2019-01-05T03:52:27.881Z,6.40
2019-01-05T03:53:27.877Z,5.00
2019-01-05T03:54:27.872Z,5.00
2019-01-05T03:55:27.842Z,4.80
2019-01-05T03:56:27.836Z,4.30
2019-01-05T03:57:27.828Z,4.00
2019-01-05T03:58:27.820Z,4.20
2019-01-05T03:59:27.834Z,3.50
2019-01-05T04:00:27.792Z,3.80
2019-01-05T04:01:27.780Z,4.10
2019-01-05T04:02:27.773Z,3.70
2019-01-05T04:03:27.798Z,3.60
2019-01-05T04:04:27.768Z,3.50
2019-01-05T04:05:27.738Z,4.70
2019-01-05T04:06:27.726Z,4.10
2019-01-05T04:07:27.715Z,4.00
2019-01-05T04:08:27.714Z,3.30
2019-01-05T04:09:27.708Z,3.30
2019-01-05T04:10:27.685Z,3.70
2019-01-05T04:11:27.668Z,3.60
2019-01-05T04:12:27.659Z,4.00
2019-01-05T04:13:27.644Z,3.60
2019-01-05T04:14:27.654Z,3.20
2019-01-05T04:15:27.622Z,3.10
2019-01-05T04:16:27.611Z,3.00
2019-01-05T04:17:27.603Z,3.10
2019-01-05T04:18:27.596Z,3.80
2019-01-05T04:19:27.607Z,4.30
2019-01-05T04:20:27.570Z,4.10
2019-01-05T04:21:27.563Z,3.80
2019-01-05T04:22:27.549Z,4.00
2019-01-05T04:23:27.536Z,3.60
2019-01-05T04:24:27.523Z,3.30
2019-01-05T04:25:27.526Z,4.80
2019-01-05T04:26:27.500Z,3.40
2019-01-05T04:27:27.492Z,3.30
2019-01-05T04:28:27.482Z,3.80
2019-01-05T04:29:27.464Z,4.80
2019-01-05T04:30:27.478Z,4.20
2019-01-05T04:31:27.442Z,3.50
2019-01-05T04:32:27.440Z,3.30
2019-01-05T04:33:27.422Z,3.50
2019-01-05T04:34:27.411Z,4.10
2019-01-05T04:35:27.420Z,4.30
2019-01-05T04:36:27.391Z,3.80
2019-01-05T04:37:27.379Z,4.60
2019-01-05T04:38:27.366Z,3.50
2019-01-05T04:39:27.358Z,3.10
2019-01-05T04:40:27.368Z,3.10
2019-01-05T04:41:27.331Z,4.80
2019-01-05T04:42:27.330Z,3.10
2019-01-05T04:43:27.308Z,3.10
2019-01-05T04:44:27.302Z,3.80
2019-01-05T04:45:27.305Z,3.10
2019-01-05T04:46:27.273Z,3.80
2019-01-05T04:47:27.295Z,3.50
2019-01-05T04:48:27.254Z,3.20
2019-01-05T04:49:27.243Z,3.50
2019-01-05T04:50:27.260Z,4.20
2019-01-05T04:51:27.222Z,3.40
2019-01-05T04:52:27.210Z,3.20
2019-01-05T04:53:27.203Z,3.70
2019-01-05T04:54:27.186Z,3.30
2019-01-05T04:55:27.194Z,3.50
2019-01-05T04:56:27.166Z,3.60
2019-01-05T04:57:27.150Z,4.70
2019-01-05T04:58:27.143Z,3.50
2019-01-05T04:59:27.134Z,4.50
2019-01-05T05:00:27.134Z,4.50
2019-01-05T05:01:27.117Z,4.00
2019-01-05T05:02:27.095Z,3.70
2019-01-05T05:03:27.086Z,4.00
2019-01-05T05:04:27.072Z,3.80
2019-01-05T05:05:27.089Z,3.60
2019-01-05T05:06:27.053Z,3.70
2019-01-05T05:07:27.037Z,3.20
2019-01-05T05:08:27.026Z,4.30
2019-01-05T05:09:27.023Z,3.70
2019-01-05T05:10:27.036Z,4.40
2019-01-05T05:11:26.996Z,3.80
2019-01-05T05:12:26.987Z,3.70
2019-01-05T05:13:26.973Z,3.90
2019-01-05T05:14:26.962Z,3.90
2019-01-05T05:15:26.966Z,4.30
2019-01-05T05:16:26.950Z,4.10
2019-01-05T05:17:26.926Z,4.00
2019-01-05T05:18:26.926Z,3.50
2019-01-05T05:19:26.906Z,3.70
2019-01-05T05:20:26.911Z,4.10
2019-01-05T05:21:26.905Z,4.00
2019-01-05T05:22:26.871Z,4.10
2019-01-05T05:23:26.863Z,3.90
2019-01-05T05:24:26.853Z,3.10
2019-01-05T05:25:26.838Z,4.70
2019-01-05T05:26:26.852Z,3.90
2019-01-05T05:27:26.816Z,3.70
2019-01-05T05:28:26.806Z,3.50
2019-01-05T05:29:26.800Z,4.80
2019-01-05T05:30:26.786Z,3.60
2019-01-05T05:31:26.788Z,3.90
2019-01-05T05:32:26.757Z,4.30
2019-01-05T05:33:26.752Z,3.70
2019-01-05T05:34:26.750Z,4.50
2019-01-05T05:35:26.733Z,4.00
2019-01-05T05:36:26.738Z,4.50
2019-01-05T05:37:26.703Z,4.30
2019-01-05T05:38:26.689Z,4.50
2019-01-05T05:39:26.680Z,6.70
2019-01-05T05:40:26.673Z,3.80
2019-01-05T05:41:26.679Z,4.60
2019-01-05T05:42:26.648Z,5.50
2019-01-05T05:43:26.634Z,5.90
2019-01-05T05:44:26.626Z,5.30
2019-01-05T05:45:26.616Z,4.70
2019-01-05T05:46:26.646Z,4.30
2019-01-05T05:47:26.593Z,5.50
2019-01-05T05:48:26.584Z,4.60
2019-01-05T05:49:26.569Z,5.10
2019-01-05T05:50:26.568Z,5.70
2019-01-05T05:51:26.579Z,5.60
2019-01-05T05:52:26.546Z,5.00
2019-01-05T05:53:26.521Z,5.90
2019-01-05T05:54:26.517Z,5.60
2019-01-05T05:55:26.507Z,5.70
2019-01-05T05:56:26.504Z,5.40
2019-01-05T05:57:26.478Z,5.30
2019-01-05T05:58:26.475Z,5.90
2019-01-05T05:59:26.456Z,6.10
2019-01-05T06:00:26.448Z,8.00
2019-01-05T06:01:26.450Z,6.60
2019-01-05T06:02:26.423Z,6.20
2019-01-05T06:03:26.411Z,6.30
2019-01-05T06:04:26.399Z,6.00
2019-01-05T06:05:26.390Z,7.50
2019-01-05T06:06:26.410Z,8.20
2019-01-05T06:07:26.378Z,7.90
2019-01-05T06:08:26.354Z,7.10
2019-01-05T06:09:26.346Z,8.60
2019-01-05T06:10:26.332Z,7.40
2019-01-05T06:11:26.322Z,7.20
2019-01-05T06:12:26.329Z,7.70
2019-01-05T06:13:26.299Z,6.60
2019-01-05T06:14:26.290Z,4.50
2019-01-05T06:15:26.285Z,7.70
2019-01-05T06:16:26.266Z,6.90
2019-01-05T06:17:26.272Z,7.10
2019-01-05T06:18:26.240Z,9.20
2019-01-05T06:19:26.232Z,8.40
2019-01-05T06:20:26.231Z,7.90
2019-01-05T06:21:26.207Z,7.30
2019-01-05T06:22:26.216Z,9.60
2019-01-05T06:23:26.186Z,9.00
2019-01-05T06:24:26.183Z,8.40
2019-01-05T06:25:26.166Z,9.00
2019-01-05T06:26:26.161Z,7.40
2019-01-05T06:27:26.166Z,9.50
2019-01-05T06:28:26.130Z,10.40
2019-01-05T06:29:26.118Z,8.90
2019-01-05T06:30:26.125Z,8.40
2019-01-05T06:31:26.105Z,7.60
2019-01-05T06:32:26.106Z,9.80
2019-01-05T06:33:26.071Z,8.90
2019-01-05T06:34:26.061Z,10.70
2019-01-05T06:35:26.050Z,11.80
2019-01-05T06:36:26.047Z,9.20
2019-01-05T06:37:26.044Z,9.90
2019-01-05T06:38:26.020Z,9.40
2019-01-05T06:39:26.008Z,9.30
2019-01-05T06:40:25.997Z,6.70
2019-01-05T06:41:25.990Z,10.90
2019-01-05T06:42:25.992Z,10.50
2019-01-05T06:43:25.967Z,8.90
2019-01-05T06:44:25.952Z,9.40
2019-01-05T06:45:25.934Z,10.10
2019-01-05T06:46:25.924Z,8.50
2019-01-05T06:47:25.932Z,10.20
2019-01-05T06:48:25.908Z,8.50
2019-01-05T06:49:25.906Z,10.20
2019-01-05T06:50:25.880Z,11.40
2019-01-05T06:51:25.869Z,11.30
2019-01-05T06:52:25.894Z,12.90
2019-01-05T06:53:25.848Z,12.30
2019-01-05T06:54:25.847Z,10.80
2019-01-05T06:55:25.824Z,11.70
2019-01-05T06:56:25.818Z,14.50
2019-01-05T06:57:25.829Z,15.00
2019-01-05T06:58:25.788Z,13.80
2019-01-05T06:59:25.783Z,12.90
2019-01-05T07:00:25.775Z,11.80
2019-01-05T07:01:25.760Z,12.80
2019-01-05T07:02:25.743Z,14.20
2019-01-05T07:03:25.757Z,14.00
2019-01-05T07:04:25.722Z,15.90
2019-01-05T07:05:25.716Z,16.50
2019-01-05T07:06:25.711Z,16.30
2019-01-05T07:07:25.684Z,15.70
2019-01-05T07:08:25.698Z,17.70
2019-01-05T07:09:25.664Z,17.50
2019-01-05T07:10:25.654Z,14.60
2019-01-05T07:11:25.654Z,15.50
2019-01-05T07:12:25.632Z,18.40
2019-01-05T07:13:25.652Z,14.70
2019-01-05T07:14:25.612Z,22.40
2019-01-05T07:15:25.621Z,19.70
2019-01-05T07:16:25.588Z,15.80
2019-01-05T07:17:25.590Z,14.50
2019-01-05T07:18:25.592Z,12.90
2019-01-05T07:19:25.565Z,16.40
2019-01-05T07:20:25.561Z,16.10
2019-01-05T07:21:25.530Z,18.10
2019-01-05T07:22:25.521Z,18.60
2019-01-05T07:23:25.534Z,17.10
2019-01-05T07:24:25.495Z,20.70
2019-01-05T07:25:25.485Z,16.70
2019-01-05T07:26:25.474Z,16.00
2019-01-05T07:27:25.459Z,19.90
2019-01-05T07:28:25.467Z,19.50
2019-01-05T07:29:25.440Z,16.40
2019-01-05T07:30:25.433Z,23.70
2019-01-05T07:31:25.422Z,17.70
2019-01-05T07:32:25.418Z,17.60
2019-01-05T07:33:25.419Z,19.50
2019-01-05T07:34:26.214Z,23.00
2019-01-05T07:35:25.378Z,19.20
2019-01-05T07:36:25.358Z,19.80
2019-01-05T07:37:25.358Z,16.90
2019-01-05T07:38:25.373Z,18.50
2019-01-05T07:39:25.336Z,20.40
2019-01-05T07:40:25.326Z,17.90
2019-01-05T07:41:25.308Z,19.30
2019-01-05T07:42:25.299Z,20.10
2019-01-05T07:43:25.290Z,17.90
2019-01-05T07:44:25.294Z,20.10
2019-01-05T07:45:25.286Z,20.60
2019-01-05T07:46:25.253Z,20.20
2019-01-05T07:47:25.240Z,19.80
2019-01-05T07:48:25.230Z,20.00
2019-01-05T07:49:25.236Z,20.10
2019-01-05T07:50:25.208Z,20.00
2019-01-05T07:51:25.196Z,22.30
2019-01-05T07:52:25.186Z,21.30
2019-01-05T07:53:25.173Z,24.60
2019-01-05T07:54:25.178Z,20.10
2019-01-05T07:55:25.154Z,20.50
2019-01-05T07:56:25.141Z,19.90
2019-01-05T07:57:25.123Z,17.50
2019-01-05T07:58:25.119Z,17.10
2019-01-05T07:59:25.124Z,17.50
2019-01-05T08:00:25.092Z,23.90
2019-01-05T08:01:25.077Z,22.10
2019-01-05T08:02:25.071Z,18.60
2019-01-05T08:03:25.057Z,22.90
2019-01-05T08:04:25.064Z,19.40
2019-01-05T08:05:25.040Z,22.10
2019-01-05T08:06:25.032Z,21.60
2019-01-05T08:07:25.014Z,23.90
2019-01-05T08:08:25.011Z,20.40
2019-01-05T08:09:25.014Z,20.90
2019-01-05T08:10:24.982Z,20.40
2019-01-05T08:11:24.970Z,20.40
2019-01-05T08:12:24.954Z,21.20
2019-01-05T08:13:24.949Z,21.50
2019-01-05T08:14:24.958Z,15.90
2019-01-05T08:15:24.921Z,18.70
2019-01-05T08:16:24.907Z,21.60
2019-01-05T08:17:24.897Z,21.50
2019-01-05T08:18:24.896Z,18.00
2019-01-05T08:19:24.895Z,26.80
2019-01-05T08:20:24.872Z,19.10
2019-01-05T08:21:24.854Z,21.40
2019-01-05T08:22:24.842Z,18.70
2019-01-05T08:23:24.839Z,19.50
2019-01-05T08:24:24.850Z,19.80
2019-01-05T08:25:24.815Z,19.60
2019-01-05T08:26:24.802Z,23.50
2019-01-05T08:27:24.793Z,25.80
2019-01-05T08:28:24.780Z,20.40
2019-01-05T08:29:24.802Z,16.80
2019-01-05T08:30:24.761Z,18.20
2019-01-05T08:31:24.742Z,20.60
2019-01-05T08:32:24.738Z,19.70
2019-01-05T08:33:24.728Z,20.80
2019-01-05T08:34:24.711Z,24.70
2019-01-05T08:35:24.718Z,18.50
2019-01-05T08:36:24.687Z,18.90
2019-01-05T08:37:24.671Z,23.40
2019-01-05T08:38:24.662Z,17.20
2019-01-05T08:39:24.653Z,17.70
2019-01-05T08:40:24.668Z,19.10
2019-01-05T08:41:24.628Z,22.30
2019-01-05T08:42:24.697Z,17.10
2019-01-05T08:43:24.612Z,21.50
2019-01-05T08:44:24.598Z,20.80
2019-01-05T08:45:24.601Z,20.20
2019-01-05T08:46:24.573Z,25.80
2019-01-05T08:47:24.563Z,23.40
2019-01-05T08:48:24.567Z,18.20
2019-01-05T08:49:24.548Z,21.00
2019-01-05T08:50:24.546Z,21.50
2019-01-05T08:51:24.525Z,20.30
2019-01-05T08:52:24.509Z,18.50
2019-01-05T08:53:24.503Z,20.50
2019-01-05T08:54:24.487Z,20.40
2019-01-05T08:55:24.490Z,20.40
2019-01-05T08:56:24.461Z,18.60
2019-01-05T08:57:24.463Z,19.40
2019-01-05T08:58:24.443Z,25.40
2019-01-05T08:59:24.430Z,18.90
2019-01-05T09:00:24.439Z,23.30
2019-01-05T09:01:24.403Z,21.50
2019-01-05T09:02:24.444Z,19.60
2019-01-05T09:03:24.380Z,24.00
2019-01-05T09:04:24.372Z,21.70
2019-01-05T09:05:24.373Z,19.60
2019-01-05T09:06:24.349Z,22.00
2019-01-05T09:07:24.338Z,19.30
2019-01-05T09:08:24.324Z,23.40
2019-01-05T09:09:24.313Z,21.10
2019-01-05T09:10:24.339Z,18.90
2019-01-05T09:11:24.303Z,19.30
2019-01-05T09:12:24.275Z,27.90
2019-01-05T09:13:24.266Z,19.60
2019-01-05T09:14:24.264Z,20.50
2019-01-05T09:15:24.283Z,20.40
2019-01-05T09:16:24.254Z,23.00
2019-01-05T09:17:24.221Z,19.30
2019-01-05T09:18:24.211Z,21.40
2019-01-05T09:19:24.201Z,24.00
2019-01-05T09:20:24.193Z,21.00
2019-01-05T09:21:24.199Z,24.00
2019-01-05T09:22:24.166Z,21.60
2019-01-05T09:23:24.156Z,19.50
2019-01-05T09:24:24.144Z,20.30
2019-01-05T09:25:24.135Z,21.10
2019-01-05T09:26:24.145Z,17.30
2019-01-05T09:27:24.114Z,20.70
2019-01-05T09:28:24.096Z,21.20
2019-01-05T09:29:24.091Z,19.00
2019-01-05T09:30:24.072Z,19.20
2019-01-05T09:31:24.083Z,20.80
2019-01-05T09:32:24.053Z,18.90
2019-01-05T09:33:24.035Z,23.20
2019-01-05T09:34:24.029Z,21.20
2019-01-05T09:35:24.019Z,20.10
2019-01-05T09:36:24.031Z,19.10
2019-01-05T09:37:23.999Z,15.00
2019-01-05T09:38:23.994Z,22.30
2019-01-05T09:39:23.977Z,21.70
2019-01-05T09:40:23.973Z,19.10
2019-01-05T09:41:23.965Z,14.80
2019-01-05T09:42:23.942Z,19.40
2019-01-05T09:43:25.019Z,18.70
2019-01-05T09:44:23.922Z,20.10
2019-01-05T09:45:23.904Z,19.80
2019-01-05T09:46:23.917Z,17.00
2019-01-05T09:47:23.888Z,16.90
2019-01-05T09:48:23.883Z,18.80
2019-01-05T09:49:23.863Z,17.50
2019-01-05T09:50:23.855Z,18.40
2019-01-05T09:51:23.869Z,19.40
2019-01-05T09:52:23.827Z,20.20
2019-01-05T09:53:23.822Z,18.20
2019-01-05T09:54:23.807Z,19.60
2019-01-05T09:55:23.803Z,14.80
2019-01-05T09:56:23.802Z,15.30
2019-01-05T09:57:23.768Z,15.30
2019-01-05T09:58:23.762Z,15.10
2019-01-05T09:59:23.754Z,15.60
2019-01-05T10:00:23.733Z,17.20
2019-01-05T10:01:23.754Z,15.50
2019-01-05T10:02:23.717Z,17.50
2019-01-05T10:03:23.703Z,17.10
2019-01-05T10:04:23.697Z,14.80
2019-01-05T10:05:23.686Z,15.80
2019-01-05T10:06:23.673Z,17.00
2019-01-05T10:07:23.675Z,18.20
2019-01-05T10:08:23.649Z,19.00
2019-01-05T10:09:23.638Z,22.40
2019-01-05T10:10:23.624Z,16.50
2019-01-05T10:11:23.618Z,15.80
2019-01-05T10:12:23.620Z,20.70
2019-01-05T10:13:23.589Z,15.10
2019-01-05T10:14:23.581Z,17.20
2019-01-05T10:15:23.567Z,15.70
2019-01-05T10:16:23.561Z,13.40
2019-01-05T10:17:23.557Z,14.90
2019-01-05T10:18:23.534Z,15.20
2019-01-05T10:19:23.523Z,14.20
2019-01-05T10:20:23.508Z,14.90
2019-01-05T10:21:23.505Z,20.20
2019-01-05T10:22:23.505Z,14.30
2019-01-05T10:23:23.479Z,13.90
2019-01-05T10:24:23.461Z,15.70
2019-01-05T10:25:23.454Z,19.20
2019-01-05T10:26:23.443Z,17.40
2019-01-05T10:27:23.463Z,16.40
2019-01-05T10:28:23.416Z,15.10
2019-01-05T10:29:23.411Z,14.00
2019-01-05T10:30:23.401Z,13.90
2019-01-05T10:31:23.391Z,14.20
2019-01-05T10:32:23.393Z,12.30
2019-01-05T10:33:23.360Z,16.00
2019-01-05T10:34:23.349Z,15.70
2019-01-05T10:35:23.340Z,14.80
2019-01-05T10:36:23.338Z,14.90
2019-01-05T10:37:23.338Z,14.10
2019-01-05T10:38:23.307Z,16.90
2019-01-05T10:39:23.297Z,15.40
2019-01-05T10:40:23.281Z,15.30
2019-01-05T10:41:23.277Z,12.90
2019-01-05T10:42:23.275Z,14.50
2019-01-05T10:43:23.245Z,15.90
2019-01-05T10:44:23.237Z,14.10
2019-01-05T10:45:23.227Z,12.80
2019-01-05T10:46:23.216Z,16.80
2019-01-05T10:47:23.219Z,12.30
2019-01-05T10:48:23.195Z,13.30
2019-01-05T10:49:23.214Z,14.00
2019-01-05T10:50:23.169Z,13.00
2019-01-05T10:51:23.160Z,14.30
2019-01-05T10:52:23.179Z,13.80
2019-01-05T10:53:23.134Z,14.30
2019-01-05T10:54:23.125Z,14.60
2019-01-05T10:55:23.132Z,15.00
2019-01-05T10:56:23.103Z,14.00
2019-01-05T10:57:23.090Z,16.00
2019-01-05T10:58:23.105Z,12.80
2019-01-05T10:59:23.064Z,15.70
2019-01-05T11:00:23.070Z,13.70
2019-01-05T11:01:23.048Z,13.80
2019-01-05T11:02:24.239Z,17.30
2019-01-05T11:03:23.042Z,15.10
2019-01-05T11:04:23.010Z,15.30
2019-01-05T11:05:22.998Z,16.50
2019-01-05T11:06:22.996Z,15.40
2019-01-05T11:07:22.977Z,13.40
2019-01-05T11:08:22.980Z,15.80
2019-01-05T11:09:22.963Z,13.90
2019-01-05T11:10:22.944Z,13.90
2019-01-05T11:11:22.938Z,16.90
2019-01-05T11:12:22.923Z,15.80
2019-01-05T11:13:22.927Z,11.80
2019-01-05T11:14:22.904Z,16.30
2019-01-05T11:15:22.889Z,16.00
2019-01-05T11:16:22.875Z,13.40
2019-01-05T11:17:22.864Z,12.90
2019-01-05T11:18:22.873Z,15.20
2019-01-05T11:19:22.843Z,14.10
2019-01-05T11:20:22.829Z,13.10
2019-01-05T11:21:22.820Z,14.30
2019-01-05T11:22:22.811Z,12.00
2019-01-05T11:23:22.814Z,12.80
2019-01-05T11:24:22.787Z,9.90
2019-01-05T11:25:22.776Z,15.70
2019-01-05T11:26:22.768Z,11.20
2019-01-05T11:27:22.748Z,16.90
2019-01-05T11:28:22.761Z,12.10
2019-01-05T11:29:22.728Z,15.40
2019-01-05T11:30:22.722Z,14.10
2019-01-05T11:31:22.713Z,11.10
2019-01-05T11:32:22.692Z,15.20
2019-01-05T11:33:22.701Z,15.80
2019-01-05T11:34:22.677Z,16.10
2019-01-05T11:35:22.661Z,12.10
2019-01-05T11:36:22.653Z,15.30
2019-01-05T11:37:22.637Z,14.50
2019-01-05T11:38:22.664Z,15.70
2019-01-05T11:39:22.618Z,12.90
2019-01-05T11:40:22.613Z,13.80
2019-01-05T11:41:22.593Z,12.90
2019-01-05T11:42:22.587Z,10.00
2019-01-05T11:43:22.567Z,14.80
2019-01-05T11:44:22.579Z,14.40
2019-01-05T11:45:22.549Z,13.20
2019-01-05T11:46:22.538Z,14.90
2019-01-05T11:47:22.526Z,14.90
2019-01-05T11:48:22.515Z,14.60
2019-01-05T11:49:22.536Z,13.00
2019-01-05T11:50:22.499Z,15.90
2019-01-05T11:51:22.489Z,11.50
2019-01-05T11:52:22.475Z,17.20
2019-01-05T11:53:22.469Z,11.50
2019-01-05T11:54:22.485Z,13.30
2019-01-05T11:55:22.435Z,13.30
2019-01-05T11:56:22.433Z,12.00
2019-01-05T11:57:22.415Z,12.70
2019-01-05T11:58:22.401Z,15.70
2019-01-05T11:59:22.407Z,15.80
2019-01-05T12:00:22.383Z,10.60
2019-01-05T12:01:22.370Z,13.30
2019-01-05T12:02:22.362Z,13.40
2019-01-05T12:03:22.345Z,12.20
2019-01-05T12:04:22.355Z,12.40
2019-01-05T12:05:22.338Z,13.30
2019-01-05T12:06:22.306Z,12.10
2019-01-05T12:07:22.309Z,11.10
2019-01-05T12:08:22.291Z,13.90
2019-01-05T12:09:22.304Z,13.30
2019-01-05T12:10:22.273Z,13.30
2019-01-05T12:11:22.268Z,12.70
2019-01-05T12:12:22.246Z,9.80
2019-01-05T12:13:22.235Z,12.60
2019-01-05T12:14:22.247Z,12.10
2019-01-05T12:15:22.214Z,11.00
2019-01-05T12:16:22.205Z,10.50
2019-01-05T12:17:22.184Z,13.50
2019-01-05T12:18:22.179Z,10.80
2019-01-05T12:19:22.184Z,12.20
2019-01-05T12:20:22.154Z,12.20
2019-01-05T12:21:22.147Z,13.00
2019-01-05T12:22:22.133Z,12.70
2019-01-05T12:23:22.118Z,11.30
2019-01-05T12:24:22.130Z,9.30
2019-01-05T12:25:22.101Z,9.10
2019-01-05T12:26:22.084Z,10.20
2019-01-05T12:27:22.074Z,12.80
2019-01-05T12:28:22.059Z,10.10
2019-01-05T12:29:22.065Z,12.50
2019-01-05T12:30:22.041Z,9.60
2019-01-05T12:31:22.027Z,13.30
2019-01-05T12:32:22.015Z,11.60
2019-01-05T12:33:22.008Z,10.10
2019-01-05T12:34:22.021Z,10.30
2019-01-05T12:35:21.987Z,13.30
2019-01-05T12:36:21.967Z,10.90
2019-01-05T12:37:21.962Z,11.90
2019-01-05T12:38:21.948Z,15.30
2019-01-05T12:39:21.958Z,11.70
2019-01-05T12:40:21.949Z,12.80
2019-01-05T12:41:21.915Z,13.70
2019-01-05T12:42:21.910Z,13.40
2019-01-05T12:43:21.894Z,12.70
2019-01-05T12:44:21.879Z,10.70
2019-01-05T12:45:21.892Z,12.40
2019-01-05T12:46:21.859Z,14.10
2019-01-05T12:47:21.854Z,11.90
2019-01-05T12:48:21.839Z,11.90
2019-01-05T12:49:21.825Z,11.80
2019-01-05T12:50:21.856Z,11.30
2019-01-05T12:51:21.809Z,11.80
2019-01-05T12:52:21.791Z,11.40
2019-01-05T12:53:21.781Z,13.20
2019-01-05T12:54:21.771Z,13.40
2019-01-05T12:55:21.787Z,13.40
2019-01-05T12:56:21.746Z,12.50
2019-01-05T12:57:21.742Z,10.50
2019-01-05T12:58:21.722Z,9.10
2019-01-05T12:59:21.721Z,14.80
2019-01-05T13:00:21.728Z,12.40
2019-01-05T13:01:21.689Z,13.40
2019-01-05T13:02:21.681Z,11.10
2019-01-05T13:03:21.673Z,14.10
2019-01-05T13:04:21.657Z,10.40